METAR AND TAF INFORMATION
METAR FOR UARR
ADDS - METARS form results

(1240 UTC 23 January 2019)
Data provider http://aviationweather.gov/metar/data/
 
METAR text: UARR 231230Z VRB01MPS CAVOK M22/M24 Q1028 R22/890350 NOSIG RMK QFE767/1023
Conditions at: UARR (URALSK , KZ) observed 1230 UTC 23 January 2019
Temperature: -22.0°C (-8°F)
Dewpoint: -24.0°C (-11°F) [RH = 84%]
Pressure (altimeter): 30.35 inches Hg (1028.0 mb)
Winds: variable direction winds at 2 MPH (2 knots; 1.0 m/s)
Visibility: 6 or more miles (10+ km)
Ceiling: ceiling and visibility are OK
Clouds: unknown
Weather: no significant weather observed at this time

METAR text: UARR 231200Z 02002MPS CAVOK M20/M22 Q1027 R22/890350 NOSIG RMK QFE767/1023
Conditions at: UARR (URALSK , KZ) observed 1200 UTC 23 January 2019
Temperature: -20.0°C (-4°F)
Dewpoint: -22.0°C (-8°F) [RH = 84%]
Pressure (altimeter): 30.32 inches Hg (1027.0 mb)
Winds: from the NNE (20 degrees) at 5 MPH (4 knots; 2.1 m/s)
Visibility: 6 or more miles (10+ km)
Ceiling: ceiling and visibility are OK
Clouds: unknown
Weather: no significant weather observed at this time

Forecast for: UARR (URALSK , KZ)
Text: TAF UARR 231100Z 2312/2321 VRB02MPS 3000 BR BKN010
Forecast period: 1200 to 2100 UTC 23 January 2019
Forecast type: FROM: standard forecast or significant change
Winds: variable direction winds at 5 MPH (4 knots; 2.1 m/s)
Visibility: 1.86 miles (2.99 km)
Ceiling: 1000 feet AGL
Clouds: broken clouds at 1000 feet AGL
Weather: BR  (mist)
Text: TEMPO 2312/2315 2000 BKN005
Forecast period: 1200 to 1500 UTC 23 January 2019
Forecast type: TEMPORARY: The following changes expected for less than half the time period
Visibility: 1.24 miles (2.00 km)
Ceiling: 500 feet AGL
Clouds: broken clouds at 500 feet AGL
Weather: no significant weather forecast for this period
Text: TEMPO 2315/2321 0400 FZFG VV002
Forecast period: 1500 to 2100 UTC 23 January 2019
Forecast type: TEMPORARY: The following changes expected for less than half the time period
Visibility: 0.25 miles (0.40 km)
Ceiling: indefinite ceiling with vertical visibility of 200 feet AGL
Clouds: obscured sky
Weather: FZFG  (freezing fog)

 AIRPORT MAP

 RUNWAY INFORMATION

 AIRPORT FREQUENCIES
Type TWR Name TWR Frequency 119.7 MHZ

 AIRPORT NEAR NAVIGATION AIDS
Type NDB Name Uralsk Frequency 442 KHZ
Type NDB Name Uralsk Frequency 442 KHZ
Type VOR-DME Name Uralsk Frequency 114200 KHZ



2018 Air Astana Virtual Airline